createdAt,value
2016-02-11T00:05:16.379Z,0
2016-02-11T00:05:45.099Z,0
2016-02-11T00:06:45.101Z,0
2016-02-11T00:07:45.088Z,0
2016-02-11T00:08:45.090Z,0
2016-02-11T00:09:45.124Z,0
2016-02-11T00:10:45.127Z,0
2016-02-11T00:11:45.115Z,0
2016-02-11T00:12:45.132Z,0
2016-02-11T00:13:45.151Z,0
2016-02-11T00:14:45.140Z,0
2016-02-11T00:15:45.142Z,0
2016-02-11T00:16:45.161Z,0
2016-02-11T00:17:45.165Z,0
2016-02-11T00:18:45.168Z,0
2016-02-11T00:19:45.154Z,0
2016-02-11T00:20:45.188Z,0
2016-02-11T00:21:45.191Z,0
2016-02-11T00:22:45.258Z,0
2016-02-11T00:23:45.197Z,0
2016-02-11T00:24:45.217Z,0
2016-02-11T00:25:45.221Z,0
2016-02-11T00:26:45.254Z,0
2016-02-11T00:27:45.242Z,0
2016-02-11T00:28:45.245Z,0
2016-02-11T00:29:45.278Z,0
2016-02-11T00:31:05.490Z,0
2016-02-11T00:31:45.099Z,0
2016-02-11T00:32:45.130Z,0
2016-02-11T00:33:45.336Z,0
2016-02-11T00:34:45.374Z,0
2016-02-11T00:35:45.276Z,0
2016-02-11T00:36:45.310Z,0
2016-02-11T00:37:45.344Z,0
2016-02-11T00:38:45.331Z,0
2016-02-11T00:39:45.319Z,0
2016-02-11T00:40:45.353Z,0
2016-02-11T00:41:45.340Z,0
2016-02-11T00:42:45.344Z,0
2016-02-11T00:43:45.394Z,0
2016-02-11T00:44:45.380Z,0
2016-02-11T00:45:45.368Z,0
2016-02-11T00:46:45.370Z,0
2016-02-11T00:47:45.405Z,0
2016-02-11T00:48:45.391Z,0
2016-02-11T00:49:45.379Z,0
2016-02-11T00:50:45.415Z,0
2016-02-11T00:51:45.417Z,0
2016-02-11T00:52:45.451Z,0
2016-02-11T00:53:45.423Z,0
2016-02-11T00:54:45.441Z,0
2016-02-11T00:55:45.444Z,0
2016-02-11T00:56:45.447Z,0
2016-02-11T00:57:45.496Z,0
2016-02-11T00:58:45.468Z,0
2016-02-11T00:59:45.488Z,0
2016-02-11T01:03:40.342Z,0
2016-02-11T01:04:34.610Z,0
2016-02-11T01:05:34.758Z,0
2016-02-11T01:06:34.761Z,0
2016-02-11T01:07:34.810Z,0
2016-02-11T01:08:34.782Z,0
2016-02-11T01:09:34.785Z,0
2016-02-11T01:10:34.803Z,0
2016-02-11T01:11:34.821Z,0
2016-02-11T01:12:34.809Z,0
2016-02-11T01:13:34.826Z,0
2016-02-11T01:14:34.829Z,0
2016-02-11T01:15:34.817Z,0
2016-02-11T01:16:34.835Z,0
2016-02-11T01:17:34.854Z,0
2016-02-11T01:18:34.856Z,0
2016-02-11T01:19:34.859Z,0
2016-02-11T01:20:34.862Z,0
2016-02-11T01:21:34.912Z,0
2016-02-11T01:22:34.899Z,0
2016-02-11T01:23:34.902Z,0
2016-02-11T01:24:34.905Z,0
2016-02-11T01:25:34.911Z,0
2016-02-11T01:26:34.978Z,0
2016-02-11T01:27:34.761Z,0
2016-02-11T01:28:34.951Z,0
2016-02-11T01:29:34.938Z,0
2016-02-11T01:32:11.946Z,0
2016-02-11T01:32:24.602Z,0
2016-02-11T01:33:24.640Z,0
2016-02-11T01:34:24.642Z,0
2016-02-11T01:35:24.645Z,0
2016-02-11T01:36:24.634Z,0
2016-02-11T01:37:24.652Z,0
2016-02-11T01:38:24.666Z,0
2016-02-11T01:39:24.653Z,0
2016-02-11T01:40:24.672Z,0
2016-02-11T01:41:24.691Z,0
2016-02-11T01:42:24.693Z,0
2016-02-11T01:43:24.680Z,0
2016-02-11T01:44:24.729Z,0
2016-02-11T01:45:24.717Z,0
2016-02-11T01:46:24.704Z,0
2016-02-11T01:47:24.707Z,0
2016-02-11T01:48:24.740Z,0
2016-02-11T01:49:24.727Z,0
2016-02-11T01:50:24.729Z,0
2016-02-11T01:51:24.733Z,0
2016-02-11T01:52:24.751Z,0
2016-02-11T01:53:24.754Z,0
2016-02-11T01:54:24.787Z,0
2016-02-11T01:55:24.774Z,0
2016-02-11T01:56:24.794Z,0
2016-02-11T01:57:24.781Z,0
2016-02-11T01:58:24.816Z,0
2016-02-11T01:59:24.802Z,0
2016-02-11T02:00:56.132Z,0
2016-02-11T02:01:24.824Z,0
2016-02-11T02:02:24.842Z,0
2016-02-11T02:03:24.845Z,0
2016-02-11T02:04:24.833Z,0
2016-02-11T02:05:24.882Z,0
2016-02-11T02:06:24.853Z,0
2016-02-11T02:07:24.872Z,0
2016-02-11T02:08:24.891Z,0
2016-02-11T02:09:24.893Z,0
2016-02-11T02:10:24.896Z,0
2016-02-11T02:11:24.882Z,0
2016-02-11T02:12:24.901Z,0
2016-02-11T02:13:24.934Z,0
2016-02-11T02:14:24.906Z,0
2016-02-11T02:15:24.924Z,0
2016-02-11T02:16:24.943Z,0
2016-02-11T02:17:24.946Z,0
2016-02-11T02:18:24.934Z,0
2016-02-11T02:19:24.952Z,0
2016-02-11T02:20:24.814Z,0
2016-02-11T02:21:24.972Z,0
2016-02-11T02:22:24.975Z,0
2016-02-11T02:23:24.994Z,0
2016-02-11T02:24:24.981Z,0
2016-02-11T02:25:25.047Z,0
2016-02-11T02:26:25.003Z,0
2016-02-11T02:27:25.022Z,0
2016-02-11T02:28:25.025Z,0
2016-02-11T02:29:25.059Z,0
2016-02-11T02:33:54.679Z,0
2016-02-11T02:34:14.307Z,0
2016-02-11T02:35:14.294Z,0
2016-02-11T02:36:14.312Z,0
2016-02-11T02:37:14.314Z,0
2016-02-11T02:38:14.380Z,0
2016-02-11T02:39:14.336Z,0
2016-02-11T02:40:14.339Z,0
2016-02-11T02:41:14.356Z,0
2016-02-11T02:42:14.358Z,0
2016-02-11T02:43:14.361Z,0
2016-02-11T02:44:14.364Z,0
2016-02-11T02:45:14.399Z,0
2016-02-11T02:46:14.386Z,0
2016-02-11T02:47:14.389Z,0
2016-02-11T02:48:14.438Z,0
2016-02-11T02:49:14.425Z,0
2016-02-11T02:50:14.427Z,0
2016-02-11T02:51:14.430Z,0
2016-02-11T02:52:14.432Z,0
2016-02-11T02:53:14.435Z,0
2016-02-11T02:54:14.457Z,0
2016-02-11T02:55:14.445Z,0
2016-02-11T02:56:14.448Z,0
2016-02-11T02:57:14.481Z,0
2016-02-11T02:58:14.469Z,0
2016-02-11T02:59:14.522Z,0
2016-02-11T03:00:24.759Z,0
2016-02-11T03:01:14.496Z,0
2016-02-11T03:02:14.515Z,0
2016-02-11T03:03:14.518Z,0
2016-02-11T03:04:14.511Z,0
2016-02-11T03:05:14.545Z,0
2016-02-11T03:06:14.534Z,0
2016-02-11T03:07:14.567Z,0
2016-02-11T03:08:14.554Z,0
2016-02-11T03:09:14.542Z,0
2016-02-11T03:10:14.575Z,0
2016-02-11T03:11:14.547Z,0
2016-02-11T03:12:14.597Z,0
2016-02-11T03:13:14.583Z,0
2016-02-11T03:14:14.603Z,0
2016-02-11T03:15:14.620Z,0
2016-02-11T03:16:14.609Z,0
2016-02-11T03:17:14.626Z,0
2016-02-11T03:18:14.634Z,0
2016-02-11T03:19:14.636Z,0
2016-02-11T03:20:14.656Z,0
2016-02-11T03:21:14.658Z,0
2016-02-11T03:22:14.662Z,0
2016-02-11T03:23:14.695Z,0
2016-02-11T03:24:14.529Z,0
2016-02-11T03:25:14.672Z,0
2016-02-11T03:26:14.706Z,0
2016-02-11T03:27:14.693Z,0
2016-02-11T03:28:14.728Z,0
2016-02-11T03:29:14.715Z,0
2016-02-11T03:33:03.989Z,0
2016-02-11T03:34:03.976Z,0
2016-02-11T03:35:03.979Z,0
2016-02-11T03:36:03.981Z,0
2016-02-11T03:37:04.016Z,0
2016-02-11T03:38:04.004Z,0
2016-02-11T03:39:04.038Z,0
2016-02-11T03:40:04.024Z,0
2016-02-11T03:41:04.026Z,0
2016-02-11T03:42:04.029Z,0
2016-02-11T03:43:04.049Z,0
2016-02-11T03:44:04.066Z,0
2016-02-11T03:45:04.054Z,0
2016-02-11T03:46:04.056Z,0
2016-02-11T03:47:04.090Z,0
2016-02-11T03:48:04.077Z,0
2016-02-11T03:49:04.080Z,0
2016-02-11T03:50:04.082Z,0
2016-02-11T03:51:04.101Z,0
2016-02-11T03:52:04.119Z,0
2016-02-11T03:53:04.106Z,0
2016-02-11T03:54:04.125Z,0
2016-02-11T03:55:04.143Z,0
2016-02-11T03:56:04.139Z,0
2016-02-11T03:57:04.142Z,0
2016-02-11T03:58:04.144Z,0
2016-02-11T03:59:04.164Z,0
2016-02-11T04:02:42.316Z,0
2016-02-11T04:02:54.972Z,0
2016-02-11T04:03:54.974Z,0
2016-02-11T04:04:54.993Z,0
2016-02-11T04:05:55.011Z,0
2016-02-11T04:06:54.999Z,0
2016-02-11T04:07:55.001Z,0
2016-02-11T04:08:55.005Z,0
2016-02-11T04:09:55.039Z,0
2016-02-11T04:10:55.026Z,0
2016-02-11T04:11:55.044Z,0
2016-02-11T04:12:55.047Z,0
2016-02-11T04:13:55.052Z,0
2016-02-11T04:14:55.070Z,0
2016-02-11T04:15:55.072Z,0
2016-02-11T04:16:55.091Z,0
2016-02-11T04:17:55.093Z,0
2016-02-11T04:18:55.096Z,0
2016-02-11T04:19:55.115Z,0
2016-02-11T04:20:55.102Z,0
2016-02-11T04:21:55.104Z,0
2016-02-11T04:22:55.139Z,0
2016-02-11T04:23:55.142Z,0
2016-02-11T04:24:55.129Z,0
2016-02-11T04:25:55.132Z,0
2016-02-11T04:26:55.139Z,0
2016-02-11T04:27:55.157Z,0
2016-02-11T04:28:55.176Z,0
2016-02-11T04:29:55.163Z,0
2016-02-11T04:34:04.673Z,0
2016-02-11T04:34:44.458Z,0
2016-02-11T04:35:44.445Z,0
2016-02-11T04:36:44.463Z,0
2016-02-11T04:37:44.450Z,0
2016-02-11T04:38:44.467Z,0
2016-02-11T04:39:44.473Z,0
2016-02-11T04:40:44.476Z,0
2016-02-11T04:41:44.494Z,0
2016-02-11T04:42:44.513Z,0
2016-02-11T04:43:44.499Z,0
2016-02-11T04:44:44.533Z,0
2016-02-11T04:45:44.521Z,0
2016-02-11T04:46:44.539Z,0
2016-02-11T04:47:44.543Z,0
2016-02-11T04:48:44.546Z,0
2016-02-11T04:49:44.565Z,0
2016-02-11T04:50:44.551Z,0
2016-02-11T04:51:44.570Z,0
2016-02-11T04:52:44.572Z,0
2016-02-11T04:53:44.434Z,0
2016-02-11T04:54:44.578Z,0
2016-02-11T04:55:44.596Z,0
2016-02-11T04:56:44.615Z,0
2016-02-11T04:57:44.622Z,0
2016-02-11T04:58:44.626Z,0
2016-02-11T04:59:44.613Z,0
2016-02-11T05:00:44.616Z,0
2016-02-11T05:01:44.635Z,0
2016-02-11T05:02:44.652Z,0
2016-02-11T05:03:44.655Z,0
2016-02-11T05:04:44.815Z,0
2016-02-11T05:05:44.647Z,0
2016-02-11T05:06:44.680Z,0
2016-02-11T05:07:44.528Z,0
2016-02-11T05:08:44.686Z,0
2016-02-11T05:09:44.689Z,0
2016-02-11T05:10:44.708Z,0
2016-02-11T05:11:44.711Z,0
2016-02-11T05:12:44.744Z,0
2016-02-11T05:13:44.716Z,0
2016-02-11T05:14:44.718Z,0
2016-02-11T05:15:44.722Z,0
2016-02-11T05:16:44.739Z,0
2016-02-11T05:17:44.758Z,0
2016-02-11T05:18:44.760Z,0
2016-02-11T05:19:44.747Z,0
2016-02-11T05:20:44.749Z,0
2016-02-11T05:21:44.753Z,0
2016-02-11T05:22:44.802Z,0
2016-02-11T05:23:44.774Z,0
2016-02-11T05:24:44.807Z,0
2016-02-11T05:25:44.805Z,0
2016-02-11T05:26:44.807Z,0
2016-02-11T05:27:44.810Z,0
2016-02-11T05:28:44.828Z,0
2016-02-11T05:29:44.862Z,0
2016-02-11T05:32:39.027Z,0
2016-02-11T05:32:51.684Z,0
2016-02-11T05:33:51.687Z,0
2016-02-11T05:34:51.704Z,0
2016-02-11T05:35:51.708Z,0
2016-02-11T05:36:51.710Z,0
2016-02-11T05:37:51.712Z,0
2016-02-11T05:38:51.731Z,0
2016-02-11T05:39:51.749Z,0
2016-02-11T05:40:51.737Z,0
2016-02-11T05:41:51.741Z,0
2016-02-11T05:42:51.743Z,0
2016-02-11T05:43:51.776Z,0
2016-02-11T05:44:51.763Z,0
2016-02-11T05:45:51.766Z,0
2016-02-11T05:46:51.785Z,0
2016-02-11T05:47:51.771Z,0
2016-02-11T05:48:51.790Z,0
2016-02-11T05:49:51.841Z,0
2016-02-11T05:50:51.797Z,0
2016-02-11T05:51:51.815Z,0
2016-02-11T05:52:51.833Z,0
2016-02-11T05:53:51.826Z,0
2016-02-11T05:54:51.828Z,0
2016-02-11T05:55:51.846Z,0
2016-02-11T05:56:51.849Z,0
2016-02-11T05:57:51.868Z,0
2016-02-11T05:58:51.856Z,0
2016-02-11T05:59:51.875Z,0
2016-02-11T06:01:43.442Z,0
2016-02-11T06:01:56.083Z,0
2016-02-11T06:02:56.117Z,0
2016-02-11T06:03:56.088Z,0
2016-02-11T06:04:56.107Z,0
2016-02-11T06:05:56.110Z,0
2016-02-11T06:06:56.114Z,0
2016-02-11T06:07:56.132Z,0
2016-02-11T06:08:56.166Z,0
2016-02-11T06:09:56.138Z,0
2016-02-11T06:10:56.141Z,0
2016-02-11T06:11:56.147Z,0
2016-02-11T06:12:56.135Z,0
2016-02-11T06:13:56.124Z,0
2016-02-11T06:14:56.145Z,0
2016-02-11T06:15:56.103Z,0
2016-02-11T06:16:56.132Z,0
2016-02-11T06:17:55.958Z,0
2016-02-11T06:18:56.128Z,0
2016-02-11T06:19:56.126Z,0
2016-02-11T06:20:56.139Z,0
2016-02-11T06:21:55.968Z,0
2016-02-11T06:22:56.141Z,0
2016-02-11T06:23:56.172Z,0
2016-02-11T06:24:56.143Z,0
2016-02-11T06:25:56.144Z,0
2016-02-11T06:26:56.179Z,0
2016-02-11T06:27:56.181Z,0
2016-02-11T06:28:56.167Z,0
2016-02-11T06:29:56.168Z,0
2016-02-11T06:30:56.171Z,0
2016-02-11T06:31:56.190Z,0
2016-02-11T06:32:56.254Z,0
2016-02-11T06:33:56.194Z,0
2016-02-11T06:34:56.198Z,0
2016-02-11T06:35:56.233Z,0
2016-02-11T06:36:56.219Z,0
2016-02-11T06:37:56.237Z,0
2016-02-11T06:38:56.224Z,0
2016-02-11T06:39:56.258Z,0
2016-02-11T06:40:56.246Z,0
2016-02-11T06:41:56.264Z,0
2016-02-11T06:42:56.282Z,0
2016-02-11T06:43:56.271Z,0
2016-02-11T06:44:56.274Z,0
2016-02-11T06:45:56.292Z,0
2016-02-11T06:46:56.294Z,0
2016-02-11T06:47:56.313Z,0
2016-02-11T06:48:56.331Z,0
2016-02-11T06:49:56.302Z,0
2016-02-11T06:50:56.337Z,0
2016-02-11T06:51:56.325Z,0
2016-02-11T06:52:56.343Z,0
2016-02-11T06:53:56.337Z,0
2016-02-11T06:54:57.090Z,0
2016-02-11T06:55:56.357Z,0
2016-02-11T06:56:56.359Z,0
2016-02-11T06:57:56.394Z,0
2016-02-11T06:58:56.396Z,0
2016-02-11T06:59:56.384Z,0
2016-02-11T07:03:48.474Z,5
2016-02-11T07:04:45.649Z,5
2016-02-11T07:05:45.667Z,5
2016-02-11T07:06:45.669Z,5
2016-02-11T07:07:45.688Z,5
2016-02-11T07:08:45.692Z,5
2016-02-11T07:09:45.695Z,5
2016-02-11T07:10:45.697Z,5
2016-02-11T07:11:45.716Z,5
2016-02-11T07:12:45.702Z,5
2016-02-11T07:13:45.722Z,10
2016-02-11T07:14:45.724Z,10
2016-02-11T07:15:45.727Z,10
2016-02-11T07:16:45.729Z,10
2016-02-11T07:17:45.747Z,10
2016-02-11T07:18:45.766Z,10
2016-02-11T07:19:45.752Z,10
2016-02-11T07:20:45.771Z,10
2016-02-11T07:21:45.790Z,10
2016-02-11T07:22:45.766Z,10
2016-02-11T07:23:45.800Z,10
2016-02-11T07:24:45.787Z,10
2016-02-11T07:25:45.805Z,10
2016-02-11T07:26:45.808Z,10
2016-02-11T07:27:45.810Z,10
2016-02-11T07:28:45.844Z,15
2016-02-11T07:29:45.848Z,15
2016-02-11T07:30:50.756Z,15
2016-02-11T07:31:45.853Z,20
2016-02-11T07:32:45.856Z,20
2016-02-11T07:33:45.874Z,15
2016-02-11T07:34:45.892Z,15
2016-02-11T07:35:45.911Z,15
2016-02-11T07:36:45.882Z,15
2016-02-11T07:37:45.931Z,20
2016-02-11T07:38:45.903Z,20
2016-02-11T07:39:45.906Z,20
2016-02-11T07:40:45.924Z,20
2016-02-11T07:41:45.911Z,20
2016-02-11T07:42:45.931Z,20
2016-02-11T07:43:45.948Z,20
2016-02-11T07:44:45.951Z,25
2016-02-11T07:45:45.944Z,30
2016-02-11T07:46:46.087Z,35
2016-02-11T07:47:45.965Z,40
2016-02-11T07:48:45.984Z,40
2016-02-11T07:49:45.971Z,40
2016-02-11T07:50:45.989Z,45
2016-02-11T07:51:45.991Z,45
2016-02-11T07:52:46.009Z,45
2016-02-11T07:53:46.044Z,45
2016-02-11T07:54:46.017Z,45
2016-02-11T07:55:46.023Z,45
2016-02-11T07:56:46.028Z,45
2016-02-11T07:57:46.062Z,50
2016-02-11T07:58:46.065Z,50
2016-02-11T07:59:46.052Z,50
2016-02-11T08:01:06.273Z,50
2016-02-11T08:01:46.088Z,55
2016-02-11T08:02:46.093Z,50
2016-02-11T08:03:46.079Z,55
2016-02-11T08:04:46.098Z,55
2016-02-11T08:05:46.116Z,60
2016-02-11T08:06:46.103Z,65
2016-02-11T08:07:46.105Z,65
2016-02-11T08:08:46.140Z,70
2016-02-11T08:09:46.142Z,75
2016-02-11T08:10:46.131Z,70
2016-02-11T08:11:46.149Z,55
2016-02-11T08:12:46.167Z,55
2016-02-11T08:13:46.169Z,50
2016-02-11T08:14:46.172Z,45
2016-02-11T08:15:46.175Z,45
2016-02-11T08:16:46.209Z,45
2016-02-11T08:17:46.211Z,50
2016-02-11T08:18:46.198Z,55
2016-02-11T08:19:46.218Z,55
2016-02-11T08:20:46.220Z,50
2016-02-11T08:21:46.224Z,50
2016-02-11T08:22:46.257Z,55
2016-02-11T08:23:46.244Z,50
2016-02-11T08:24:46.247Z,55
2016-02-11T08:25:46.265Z,60
2016-02-11T08:26:46.271Z,60
2016-02-11T08:27:46.133Z,55
2016-02-11T08:28:46.276Z,75
2016-02-11T08:29:46.295Z,90
2016-02-11T08:31:27.156Z,75
2016-02-11T08:31:46.331Z,80
2016-02-11T08:32:46.334Z,85
2016-02-11T08:33:46.337Z,105
2016-02-11T08:34:46.339Z,80
2016-02-11T08:35:46.389Z,100
2016-02-11T08:36:46.344Z,75
2016-02-11T08:37:46.394Z,100
2016-02-11T08:38:46.367Z,100
2016-02-11T08:39:46.384Z,105
2016-02-11T08:40:46.402Z,200
2016-02-11T08:41:46.405Z,95
2016-02-11T08:42:46.408Z,70
2016-02-11T08:43:46.411Z,65
2016-02-11T08:44:46.445Z,60
2016-02-11T08:45:46.432Z,65
2016-02-11T08:46:46.449Z,70
2016-02-11T08:47:46.452Z,145
2016-02-11T08:48:46.455Z,65
2016-02-11T08:49:46.474Z,140
2016-02-11T08:50:46.492Z,65
2016-02-11T08:51:46.479Z,65
2016-02-11T08:52:46.513Z,75
2016-02-11T08:53:46.500Z,70
2016-02-11T08:54:46.518Z,80
2016-02-11T08:55:46.520Z,80
2016-02-11T08:56:46.525Z,65
2016-02-11T08:57:46.565Z,80
2016-02-11T08:58:46.537Z,85
2016-02-11T08:59:46.587Z,365
2016-02-11T09:00:56.746Z,245
2016-02-11T09:01:46.561Z,610
2016-02-11T09:02:46.596Z,135
2016-02-11T09:03:46.598Z,385
2016-02-11T09:04:46.493Z,505
2016-02-11T09:05:46.605Z,100
2016-02-11T09:06:46.623Z,80
2016-02-11T09:07:46.625Z,310
2016-02-11T09:08:46.660Z,90
2016-02-11T09:09:46.663Z,120
2016-02-11T09:10:46.650Z,420
2016-02-11T09:11:46.668Z,95
2016-02-11T09:12:46.686Z,85
2016-02-11T09:13:46.689Z,95
2016-02-11T09:14:46.568Z,300
2016-02-11T09:15:46.727Z,145
2016-02-11T09:16:46.714Z,90
2016-02-11T09:17:46.717Z,85
2016-02-11T09:18:46.735Z,95
2016-02-11T09:19:46.753Z,150
2016-02-11T09:20:46.760Z,75
2016-02-11T09:21:46.763Z,80
2016-02-11T09:22:46.766Z,75
2016-02-11T09:23:46.799Z,80
2016-02-11T09:24:46.787Z,110
2016-02-11T09:25:46.820Z,75
2016-02-11T09:26:46.824Z,60
2016-02-11T09:27:46.841Z,65
2016-02-11T09:28:46.829Z,65
2016-02-11T09:29:46.849Z,60
2016-02-11T09:30:49.532Z,65
2016-02-11T09:31:46.862Z,65
2016-02-11T09:32:46.866Z,75
2016-02-11T09:33:46.916Z,65
2016-02-11T09:34:46.902Z,60
2016-02-11T09:35:46.890Z,65
2016-02-11T09:36:46.907Z,70
2016-02-11T09:37:46.925Z,640
2016-02-11T09:38:46.913Z,95
2016-02-11T09:39:46.947Z,345
2016-02-11T09:40:46.934Z,175
2016-02-11T09:41:46.953Z,95
2016-02-11T09:42:46.970Z,90
2016-02-11T09:43:46.973Z,655
2016-02-11T09:44:46.992Z,80
2016-02-11T09:45:46.994Z,60
2016-02-11T09:46:46.981Z,60
2016-02-11T09:47:47.018Z,60
2016-02-11T09:48:47.020Z,60
2016-02-11T09:49:47.039Z,55
2016-02-11T09:50:46.886Z,50
2016-02-11T09:51:47.061Z,155
2016-02-11T09:52:47.063Z,55
2016-02-11T09:53:47.097Z,45
2016-02-11T09:54:47.068Z,50
2016-02-11T09:55:47.071Z,55
2016-02-11T09:56:47.089Z,50
2016-02-11T09:57:47.092Z,55
2016-02-11T09:58:47.142Z,55
2016-02-11T09:59:47.113Z,50
2016-02-11T10:03:25.279Z,70
2016-02-11T10:04:25.142Z,80
2016-02-11T10:05:25.301Z,85
2016-02-11T10:06:25.318Z,85
2016-02-11T10:07:25.353Z,80
2016-02-11T10:08:25.323Z,70
2016-02-11T10:09:25.374Z,70
2016-02-11T10:10:25.345Z,80
2016-02-11T10:11:25.363Z,125
2016-02-11T10:12:25.382Z,95
2016-02-11T10:13:25.384Z,80
2016-02-11T10:14:25.403Z,75
2016-02-11T10:15:25.391Z,80
2016-02-11T10:16:25.425Z,70
2016-02-11T10:17:25.412Z,85
2016-02-11T10:18:25.415Z,80
2016-02-11T10:19:25.433Z,85
2016-02-11T10:20:25.435Z,125
2016-02-11T10:21:25.454Z,145
2016-02-11T10:22:25.472Z,140
2016-02-11T10:23:25.459Z,140
2016-02-11T10:24:25.493Z,130
2016-02-11T10:25:25.480Z,130
2016-02-11T10:26:25.483Z,125
2016-02-11T10:27:25.501Z,135
2016-02-11T10:28:25.503Z,115
2016-02-11T10:29:25.538Z,125
2016-02-11T10:30:45.762Z,115
2016-02-11T10:31:25.544Z,120
2016-02-11T10:32:25.532Z,115
2016-02-11T10:33:25.552Z,115
2016-02-11T10:34:25.569Z,115
2016-02-11T10:35:25.573Z,115
2016-02-11T10:36:25.576Z,120
2016-02-11T10:37:25.610Z,115
2016-02-11T10:38:25.597Z,125
2016-02-11T10:39:25.600Z,115
2016-02-11T10:40:25.634Z,115
2016-02-11T10:41:25.637Z,115
2016-02-11T10:42:25.671Z,115
2016-02-11T10:43:25.642Z,110
2016-02-11T10:44:25.662Z,105
2016-02-11T10:45:25.679Z,100
2016-02-11T10:46:25.682Z,85
2016-02-11T10:47:25.826Z,95
2016-02-11T10:48:25.672Z,95
2016-02-11T10:49:25.691Z,90
2016-02-11T10:50:25.709Z,105
2016-02-11T10:51:25.712Z,90
2016-02-11T10:52:25.717Z,85
2016-02-11T10:53:25.750Z,90
2016-02-11T10:54:25.754Z,90
2016-02-11T10:55:25.772Z,90
2016-02-11T10:56:25.759Z,85
2016-02-11T10:57:25.793Z,80
2016-02-11T10:58:25.782Z,75
2016-02-11T10:59:25.785Z,75
2016-02-11T11:06:04.322Z,55
2016-02-11T11:07:04.340Z,55
2016-02-11T11:08:04.358Z,50
2016-02-11T11:09:04.346Z,55
2016-02-11T11:10:04.035Z,60
2016-02-11T11:11:04.366Z,55
2016-02-11T11:12:04.354Z,55
2016-02-11T11:13:04.435Z,55
2016-02-11T11:14:04.375Z,50
2016-02-11T11:15:04.377Z,55
2016-02-11T11:16:04.395Z,55
2016-02-11T11:17:04.415Z,50
2016-02-11T11:18:04.449Z,50
2016-02-11T11:19:04.404Z,55
2016-02-11T11:20:04.438Z,50
2016-02-11T11:21:04.441Z,50
2016-02-11T11:22:04.444Z,55
2016-02-11T11:23:04.446Z,45
2016-02-11T11:24:04.449Z,50
2016-02-11T11:25:04.484Z,55
2016-02-11T11:26:04.499Z,50
2016-02-11T11:27:04.501Z,45
2016-02-11T11:28:04.504Z,40
2016-02-11T11:29:04.491Z,40
2016-02-11T11:34:00.177Z,50
2016-02-11T11:36:00.164Z,45
2016-02-11T11:37:00.166Z,45
2016-02-11T11:38:00.199Z,50
2016-02-11T11:39:00.188Z,50
2016-02-11T11:40:00.221Z,50
2016-02-11T11:41:00.208Z,45
2016-02-11T11:42:00.226Z,40
2016-02-11T11:43:00.261Z,40
2016-02-11T11:44:00.091Z,40
2016-02-11T11:45:00.267Z,40
2016-02-11T11:46:00.238Z,40
2016-02-11T11:47:00.256Z,45
2016-02-11T11:48:00.275Z,45
2016-02-11T11:49:00.277Z,40
2016-02-11T11:50:00.280Z,45
2016-02-11T11:51:00.340Z,45
2016-02-11T11:52:00.328Z,45
2016-02-11T11:52:59.408Z,40
2016-02-11T11:54:00.197Z,45
2016-02-11T11:55:00.012Z,45
2016-02-11T11:56:00.312Z,55
2016-02-11T11:56:59.718Z,45
2016-02-11T11:57:59.871Z,50
2016-02-11T11:59:00.502Z,55
2016-02-11T12:04:12.258Z,45
2016-02-11T12:04:49.635Z,50
2016-02-11T12:05:49.669Z,50
2016-02-11T12:06:49.686Z,50
2016-02-11T12:07:49.658Z,50
2016-02-11T12:08:49.677Z,45
2016-02-11T12:09:49.695Z,55
2016-02-11T12:10:49.698Z,60
2016-02-11T12:11:49.716Z,60
2016-02-11T12:12:49.703Z,65
2016-02-11T12:13:49.752Z,65
2016-02-11T12:14:49.724Z,60
2016-02-11T12:15:49.727Z,60
2016-02-11T12:16:49.746Z,60
2016-02-11T12:17:49.749Z,65
2016-02-11T12:18:49.782Z,65
2016-02-11T12:19:49.769Z,65
2016-02-11T12:20:49.787Z,60
2016-02-11T12:21:49.790Z,60
2016-02-11T12:22:49.778Z,65
2016-02-11T12:23:49.813Z,60
2016-02-11T12:24:49.815Z,60
2016-02-11T12:25:49.834Z,60
2016-02-11T12:26:49.820Z,60
2016-02-11T12:27:49.841Z,60
2016-02-11T12:28:49.845Z,60
2016-02-11T12:29:49.848Z,60
2016-02-11T12:33:28.503Z,60
2016-02-11T12:34:28.365Z,60
2016-02-11T12:35:28.508Z,60
2016-02-11T12:36:28.526Z,65
2016-02-11T12:37:28.546Z,65
2016-02-11T12:38:28.549Z,65
2016-02-11T12:39:28.567Z,65
2016-02-11T12:40:28.555Z,65
2016-02-11T12:41:28.557Z,65
2016-02-11T12:42:28.888Z,60
2016-02-11T12:43:29.172Z,60
2016-02-11T12:44:28.596Z,60
2016-02-11T12:45:28.600Z,60
2016-02-11T12:46:28.633Z,60
2016-02-11T12:47:28.621Z,60
2016-02-11T12:48:28.624Z,60
2016-02-11T12:49:28.642Z,60
2016-02-11T12:50:28.645Z,60
2016-02-11T12:51:28.678Z,60
2016-02-11T12:52:28.681Z,60
2016-02-11T12:53:28.683Z,60
2016-02-11T12:54:28.687Z,60
2016-02-11T12:55:28.689Z,60
2016-02-11T12:56:28.692Z,60
2016-02-11T12:57:28.695Z,60
2016-02-11T12:58:28.713Z,55
2016-02-11T12:59:28.716Z,55
2016-02-11T13:05:14.722Z,65
2016-02-11T13:05:27.394Z,65
2016-02-11T13:06:27.398Z,65
2016-02-11T13:07:27.400Z,65
2016-02-11T13:08:27.402Z,65
2016-02-11T13:09:27.405Z,70
2016-02-11T13:10:27.439Z,65
2016-02-11T13:11:27.444Z,65
2016-02-11T13:12:27.447Z,65
2016-02-11T13:13:27.450Z,65
2016-02-11T13:14:27.453Z,65
2016-02-11T13:15:27.471Z,65
2016-02-11T13:16:27.474Z,65
2016-02-11T13:17:27.493Z,65
2016-02-11T13:18:27.510Z,65
2016-02-11T13:19:27.499Z,65
2016-02-11T13:20:27.517Z,65
2016-02-11T13:21:27.519Z,60
2016-02-11T13:22:27.523Z,60
2016-02-11T13:23:27.526Z,60
2016-02-11T13:24:27.545Z,60
2016-02-11T13:25:27.563Z,65
2016-02-11T13:26:27.550Z,55
2016-02-11T13:27:27.567Z,60
2016-02-11T13:28:27.570Z,65
2016-02-11T13:29:27.605Z,55
2016-02-11T13:33:05.805Z,50
2016-02-11T13:34:05.777Z,50
2016-02-11T13:35:05.779Z,45
2016-02-11T13:36:05.782Z,45
2016-02-11T13:37:05.800Z,45
2016-02-11T13:38:05.802Z,45
2016-02-11T13:39:05.822Z,45
2016-02-11T13:40:05.841Z,45
2016-02-11T13:41:05.811Z,45
2016-02-11T13:42:05.831Z,45
2016-02-11T13:43:05.832Z,50
2016-02-11T13:44:05.851Z,80
2016-02-11T13:45:05.869Z,95
2016-02-11T13:46:05.872Z,175
2016-02-11T13:47:05.875Z,295
2016-02-11T13:48:05.894Z,505
2016-02-11T13:49:05.897Z,415
2016-02-11T13:50:05.916Z,155
2016-02-11T13:51:05.933Z,155
2016-02-11T13:52:05.921Z,240
2016-02-11T13:53:05.939Z,180
2016-02-11T13:54:05.957Z,110
2016-02-11T13:55:05.944Z,80
2016-02-11T13:56:05.962Z,85
2016-02-11T13:57:05.951Z,145
2016-02-11T13:58:05.984Z,230
2016-02-11T13:59:06.002Z,220
2016-02-11T14:01:11.617Z,65
2016-02-11T14:02:11.620Z,60
2016-02-11T14:03:11.655Z,55
2016-02-11T14:04:11.650Z,55
2016-02-11T14:05:11.658Z,45
2016-02-11T14:06:11.660Z,50
2016-02-11T14:07:11.678Z,50
2016-02-11T14:08:11.668Z,40
2016-02-11T14:09:11.686Z,45
2016-02-11T14:10:11.689Z,45
2016-02-11T14:11:11.723Z,45
2016-02-11T14:12:11.710Z,40
2016-02-11T14:13:11.713Z,35
2016-02-11T14:14:11.732Z,35
2016-02-11T14:15:11.734Z,35
2016-02-11T14:16:11.769Z,35
2016-02-11T14:17:11.755Z,35
2016-02-11T14:18:11.758Z,35
2016-02-11T14:19:11.761Z,35
2016-02-11T14:20:11.779Z,40
2016-02-11T14:21:11.797Z,35
2016-02-11T14:22:11.810Z,35
2016-02-11T14:23:11.797Z,35
2016-02-11T14:24:11.831Z,35
2016-02-11T14:25:11.819Z,35
2016-02-11T14:26:11.821Z,30
2016-02-11T14:27:11.840Z,35
2016-02-11T14:28:11.843Z,35
2016-02-11T14:29:11.877Z,35
2016-02-11T14:33:04.325Z,35
2016-02-11T14:33:29.840Z,35
2016-02-11T14:34:29.846Z,35
2016-02-11T14:35:29.850Z,35
2016-02-11T14:36:29.743Z,35
2016-02-11T14:37:29.902Z,35
2016-02-11T14:38:29.889Z,35
2016-02-11T14:39:29.907Z,30
2016-02-11T14:40:29.894Z,30
2016-02-11T14:41:29.929Z,30
2016-02-11T14:42:29.900Z,30
2016-02-11T14:43:29.918Z,30
2016-02-11T14:44:29.921Z,30
2016-02-11T14:45:29.939Z,30
2016-02-11T14:46:29.957Z,25
2016-02-11T14:47:29.959Z,25
2016-02-11T14:48:29.963Z,25
